Terminal Aerodrome Forecast
Issued by NWS

Home | Current Version | Previous Version | Text Only | Print | Product List | Glossary On
Versions: 1 2 3 4 5 6 7 8 9 10 11 12 13 14 15 16
000
FTUS43 KIND 211100
TAFHUF
TAF
KHUF 211120Z 2112/2212 29009KT P6SM BKN015
     FM211330 30010KT P6SM SCT020
     FM211700 30014G22KT P6SM BKN035
     FM220000 33006KT P6SM SCT035
     FM220300 33004KT P6SM SKC=

USA.gov is the U.S. government's official web portal to all federal, state and local government web resources and services.